Time;durP1;ratioP1;P1;durP2;ratioP2;P2;SDS_P1;SDS_P2;PMS_P1;PMS_P2;Temp;Humidity;BMP_temperature;BMP_pressure;BME280_temperature;BME280_humidity;BME280_pressure;Samples;Min_cycle;Max_cycle;Signal;HPM_P1;HPM_P2
2023/03/11 00:00:29;;;;;;;6.10;2.60;;;4.20;85.70;;;7.12;59.09;99985.50;5115579;28;20192;-54
2023/03/11 00:03:01;;;;;;;5.33;2.43;;;4.10;85.70;;;7.10;58.77;99988.28;5115099;28;20234;-54
2023/03/11 00:05:32;;;;;;;4.43;2.40;;;4.10;85.90;;;7.06;58.98;99988.81;5115532;28;20176;-53
2023/03/11 00:08:01;;;;;;;3.47;2.50;;;4.10;85.70;;;7.05;59.34;100005.47;5115578;28;20195;-52
2023/03/11 00:10:30;;;;;;;1.77;1.63;;;4.10;86.10;;;7.04;59.44;100012.50;5114359;28;20201;-55
2023/03/11 00:12:58;;;;;;;2.77;1.90;;;4.10;86.20;;;7.05;59.33;100011.53;5114304;28;20227;-53
2023/03/11 00:15:27;;;;;;;3.67;1.97;;;4.10;86.40;;;7.06;59.65;100022.81;5114730;28;20192;-56
2023/03/11 00:17:54;;;;;;;3.07;2.00;;;4.10;86.50;;;7.08;59.53;100021.66;5114748;28;20208;-53
2023/03/11 00:20:25;;;;;;;4.73;2.80;;;4.10;86.50;;;7.10;59.12;100026.72;5114678;28;20489;-54
2023/03/11 00:22:55;;;;;;;4.73;2.50;;;4.10;86.60;;;7.09;59.07;100041.59;5114788;28;20216;-54
2023/03/11 00:25:25;;;;;;;5.13;2.47;;;4.10;86.50;;;7.07;59.14;100034.91;5114708;28;20192;-54
2023/03/11 00:27:52;;;;;;;3.00;2.13;;;4.10;86.60;;;7.06;59.31;100038.50;5114754;28;20207;-53
2023/03/11 00:30:20;;;;;;;2.50;2.30;;;4.10;86.40;;;7.05;59.69;100042.09;5114788;28;20209;-55
2023/03/11 00:32:48;;;;;;;3.33;2.10;;;4.10;86.20;;;7.02;58.89;100048.50;5115159;28;20207;-52
2023/03/11 00:35:20;;;;;;;5.80;2.40;;;4.10;86.10;;;7.02;58.93;100052.91;5114962;28;20196;-53
2023/03/11 00:37:51;;;;;;;4.00;2.27;;;4.10;86.10;;;7.01;59.45;100066.97;5115658;28;20168;-52
2023/03/11 00:40:22;;;;;;;2.67;2.17;;;4.10;86.40;;;7.01;59.71;100061.75;5115311;28;20180;-53
2023/03/11 00:42:49;;;;;;;7.63;2.80;;;4.00;86.30;;;7.04;59.78;100064.00;5118763;28;20213;-53
2023/03/11 00:45:16;;;;;;;3.53;2.90;;;4.10;86.60;;;7.08;59.30;100073.16;5118653;28;20538;-53
2023/03/11 00:47:43;;;;;;;8.87;3.37;;;4.10;86.60;;;7.09;59.36;100085.25;5118986;28;20216;-53
2023/03/11 00:50:16;;;;;;;6.33;2.77;;;4.10;86.40;;;7.09;59.40;100086.06;5118022;28;20661;-53
2023/03/11 00:52:44;;;;;;;2.73;2.37;;;4.10;86.20;;;7.12;59.20;100090.16;5118861;28;20709;-53
2023/03/11 00:55:15;;;;;;;2.80;2.33;;;4.10;86.20;;;7.13;59.24;100089.19;5117984;28;20189;-56
2023/03/11 00:57:44;;;;;;;5.00;2.17;;;4.10;86.20;;;7.14;59.15;100094.22;5118443;28;20214;-53
2023/03/11 01:00:14;;;;;;;2.33;1.90;;;4.10;85.80;;;7.15;59.05;100097.66;5118130;28;20246;-51
2023/03/11 01:02:41;;;;;;;4.27;1.60;;;4.10;85.60;;;7.17;58.72;100099.13;5118174;28;20276;-52
2023/03/11 01:05:10;;;;;;;3.17;2.00;;;4.20;85.70;;;7.20;59.26;100104.00;5119080;28;20199;-51
2023/03/11 01:07:37;;;;;;;3.10;1.97;;;4.20;85.60;;;7.22;58.39;100101.25;5117294;28;20255;-52
2023/03/11 01:10:07;;;;;;;1.57;1.47;;;4.20;85.20;;;7.23;58.35;100101.06;5117479;28;20246;-53
2023/03/11 01:12:33;;;;;;;1.60;1.50;;;4.20;85.00;;;7.22;58.79;100103.88;5117608;27;20193;-52
2023/03/11 01:15:04;;;;;;;3.57;1.70;;;4.20;84.60;;;7.19;58.64;100117.28;5118563;28;20698;-54
2023/03/11 01:17:31;;;;;;;3.60;1.63;;;4.20;85.20;;;7.16;58.46;100128.88;5117760;28;20196;-53
2023/03/11 01:19:58;;;;;;;4.10;1.93;;;4.20;84.20;;;7.16;58.19;100133.31;5118252;28;20600;-51
2023/03/11 01:22:25;;;;;;;4.47;1.70;;;4.20;84.00;;;7.18;58.57;100139.22;5117122;28;20193;-53
2023/03/11 01:24:52;;;;;;;3.33;1.93;;;4.20;84.20;;;7.20;58.14;100139.84;5117455;28;20192;-55
2023/03/11 01:27:19;;;;;;;2.30;1.60;;;4.20;83.90;;;7.23;58.14;100147.34;5117923;28;20221;-54
2023/03/11 01:29:45;;;;;;;3.77;1.90;;;4.20;83.90;;;7.25;58.25;100146.19;5118196;28;20677;-53
2023/03/11 01:32:14;;;;;;;3.57;1.90;;;4.20;83.70;;;7.27;57.77;100146.06;5117669;28;20196;-53
2023/03/11 01:34:41;;;;;;;1.97;1.57;;;4.20;83.70;;;7.27;58.03;100153.91;5118084;28;20205;-55
2023/03/11 01:37:07;;;;;;;5.80;2.13;;;4.20;83.80;;;7.24;58.22;100146.38;5118245;28;20272;-54
2023/03/11 01:39:34;;;;;;;4.67;2.03;;;4.20;84.10;;;7.19;58.21;100149.50;5118086;28;20218;-54
2023/03/11 01:42:02;;;;;;;4.23;2.20;;;4.20;83.90;;;7.15;57.92;100150.00;5118027;28;20187;-54
2023/03/11 01:44:29;;;;;;;2.90;1.73;;;4.20;83.70;;;7.11;57.92;100162.59;5116842;28;20211;-53
2023/03/11 01:47:38;;;;;;;2.43;1.67;;;4.20;83.90;;;7.05;57.67;100167.69;5117320;28;20196;-53
2023/03/11 01:50:11;;;;;;;1.90;1.27;;;4.20;84.00;;;7.05;58.12;100181.59;5054406;28;20198;-53
2023/03/11 01:52:41;;;;;;;2.47;1.30;;;4.10;83.90;;;7.04;57.69;100173.88;5052995;28;20225;-52
2023/03/11 01:55:11;;;;;;;3.73;1.50;;;4.10;84.10;;;7.02;57.85;100174.06;5090333;28;20556;-52
2023/03/11 01:57:41;;;;;;;2.93;1.40;;;4.10;84.70;;;7.01;58.23;100179.47;5117571;28;20190;-54
2023/03/11 02:00:12;;;;;;;3.67;1.80;;;4.00;84.10;;;6.99;58.14;100192.69;5117381;28;20665;-53
2023/03/11 02:02:46;;;;;;;3.07;1.47;;;4.00;84.10;;;6.98;57.90;100192.88;5115798;28;20181;-53
2023/03/11 02:05:15;;;;;;;7.43;2.10;;;4.00;84.30;;;6.99;57.98;100199.75;5117666;28;20335;-53
2023/03/11 02:07:42;;;;;;;4.03;2.10;;;4.00;84.30;;;7.00;58.48;100196.13;5116517;28;20211;-51
2023/03/11 02:10:12;;;;;;;3.50;1.67;;;4.00;84.40;;;7.02;57.77;100199.38;5115999;28;20351;-53
2023/03/11 02:12:41;;;;;;;3.47;1.67;;;4.00;84.30;;;7.02;58.02;100209.84;5115738;28;20182;-51
2023/03/11 02:15:11;;;;;;;5.73;1.57;;;4.00;84.10;;;6.99;57.57;100207.59;5116018;28;20565;-53
2023/03/11 02:17:41;;;;;;;6.83;2.23;;;4.00;84.10;;;6.96;58.22;100218.38;5115685;27;20210;-54
2023/03/11 02:20:27;;;;;;;2.90;1.87;;;4.00;84.00;;;6.93;57.58;100226.53;5115673;28;20180;-57
2023/03/11 02:22:56;;;;;;;3.43;2.17;;;4.00;84.00;;;6.94;57.72;100234.22;5115507;28;20213;-53
2023/03/11 02:25:33;;;;;;;4.03;2.40;;;4.00;84.00;;;6.96;58.59;100231.44;5115749;28;20188;-57
2023/03/11 02:28:06;;;;;;;3.97;1.80;;;4.00;84.30;;;6.98;58.19;100229.50;5115834;28;20216;-56
2023/03/11 02:30:35;;;;;;;8.67;1.63;;;4.00;84.60;;;6.98;58.32;100235.53;5116249;28;20627;-54
2023/03/11 02:33:02;;;;;;;5.10;1.90;;;4.00;84.90;;;6.99;58.17;100241.59;5115534;28;20290;-55
2023/03/11 02:35:30;;;;;;;3.00;1.80;;;4.00;85.10;;;7.01;58.24;100244.88;5115704;28;20187;-56
2023/03/11 02:37:57;;;;;;;2.67;1.40;;;4.00;85.20;;;7.04;58.30;100249.75;5115426;28;20290;-53
2023/03/11 02:40:47;;;;;;;3.10;2.03;;;4.00;85.00;;;7.05;58.42;100246.16;5115317;28;20186;-55
2023/03/11 02:43:21;;;;;;;4.27;2.83;;;4.00;84.90;;;7.07;58.72;100249.44;5115085;28;20223;-56
2023/03/11 02:45:48;;;;;;;4.43;2.40;;;4.00;84.90;;;7.08;58.00;100245.84;5115128;28;20181;-55
2023/03/11 02:48:17;;;;;;;6.30;2.87;;;4.00;84.80;;;7.10;57.83;100259.56;5115169;28;20336;-52
2023/03/11 02:50:46;;;;;;;5.33;2.47;;;4.10;84.90;;;7.10;58.39;100249.94;5115107;28;20209;-54
2023/03/11 02:53:13;;;;;;;5.03;2.40;;;4.10;84.70;;;7.11;58.32;100255.94;5114797;28;20258;-53
2023/03/11 02:55:40;;;;;;;4.63;2.70;;;4.10;84.50;;;7.10;58.45;100264.81;5115076;28;20665;-54
2023/03/11 02:58:07;;;;;;;4.37;2.10;;;4.10;84.20;;;7.07;57.84;100254.66;5120338;28;20263;-55
2023/03/11 03:00:36;;;;;;;3.73;1.60;;;4.10;84.20;;;7.05;57.92;100256.63;5114691;28;20190;-55
2023/03/11 03:03:04;;;;;;;7.83;2.67;;;4.10;84.60;;;7.03;57.84;100258.59;5114676;28;20292;-55
2023/03/11 03:05:31;;;;;;;3.57;2.50;;;4.00;84.20;;;7.01;58.30;100271.03;5115502;28;20187;-56
2023/03/11 03:07:58;;;;;;;4.63;2.30;;;4.00;83.80;;;6.97;58.04;100260.06;5115495;28;20250;-56
2023/03/11 03:10:25;;;;;;;2.67;2.10;;;4.00;83.70;;;6.97;57.91;100264.47;5115207;28;20188;-53
2023/03/11 03:12:51;;;;;;;7.70;2.77;;;4.00;84.20;;;6.99;57.93;100273.00;5115009;28;20220;-53
2023/03/11 03:15:18;;;;;;;4.10;2.10;;;4.00;83.90;;;6.99;58.00;100273.00;5115966;28;20195;-53
2023/03/11 03:17:47;;;;;;;4.00;1.70;;;4.00;83.50;;;6.95;57.17;100272.47;5117766;28;20194;-55
2023/03/11 03:20:14;;;;;;;4.07;1.77;;;4.00;83.20;;;6.95;57.83;100272.47;5114892;28;20315;-54
2023/03/11 03:22:42;;;;;;;3.93;1.70;;;4.00;83.20;;;6.95;57.73;100282.13;5114319;28;20188;-54
2023/03/11 03:25:10;;;;;;;4.73;1.77;;;4.00;83.10;;;6.94;57.34;100289.13;5115096;28;20192;-54
2023/03/11 03:27:37;;;;;;;4.23;2.00;;;3.90;83.00;;;6.95;57.51;100287.34;5114790;28;20190;-55
2023/03/11 03:30:07;;;;;;;3.83;1.60;;;3.90;83.20;;;6.94;57.17;100280.50;5115112;28;20282;-55
2023/03/11 03:32:35;;;;;;;5.03;1.77;;;3.90;83.40;;;6.97;57.45;100290.63;5114355;28;20192;-53
2023/03/11 03:35:05;;;;;;;4.00;2.20;;;3.90;83.80;;;6.98;57.98;100294.88;5114555;28;20183;-53
2023/03/11 03:37:35;;;;;;;11.03;2.97;;;3.90;84.10;;;6.97;57.80;100296.69;5114606;28;20204;-55
2023/03/11 03:40:08;;;;;;;6.07;2.57;;;3.90;84.10;;;6.95;57.90;100298.63;5114989;28;20184;-52
2023/03/11 03:42:36;;;;;;;5.10;2.40;;;3.90;84.30;;;6.93;57.54;100305.00;5114415;28;20196;-54
2023/03/11 03:45:06;;;;;;;6.43;2.87;;;3.90;84.50;;;6.89;58.16;100306.31;5118905;28;20194;-56
2023/03/11 03:47:35;;;;;;;3.90;1.97;;;3.90;84.70;;;6.88;57.56;100312.53;5119591;28;20196;-52
2023/03/11 03:50:05;;;;;;;8.20;1.97;;;3.90;84.80;;;6.89;58.57;100312.38;5117157;28;20205;-62
2023/03/11 03:52:33;;;;;;;6.87;1.90;;;3.90;84.80;;;6.90;57.79;100310.56;5115688;28;20717;-55
2023/03/11 03:55:00;;;;;;;9.13;1.73;;;3.90;84.80;;;6.90;58.39;100327.06;5114404;28;20202;-54
2023/03/11 03:57:28;;;;;;;4.77;1.83;;;3.90;84.60;;;6.89;58.67;100324.63;5113288;28;20205;-55
2023/03/11 03:59:55;;;;;;;4.20;1.83;;;3.90;84.40;;;6.89;57.82;100328.06;5113628;28;20199;-53
2023/03/11 04:02:22;;;;;;;8.33;2.00;;;3.90;84.60;;;6.93;58.29;100325.94;5113559;28;20566;-54
2023/03/11 04:04:49;;;;;;;4.07;1.70;;;3.90;84.40;;;6.98;57.85;100328.88;5114182;28;20248;-55
2023/03/11 04:07:18;;;;;;;5.03;2.00;;;3.90;84.30;;;7.02;58.17;100341.47;5114331;28;20599;-56
2023/03/11 04:09:45;;;;;;;3.50;2.10;;;3.90;83.90;;;7.04;57.62;100349.16;5114063;28;20239;-53
2023/03/11 04:12:16;;;;;;;4.03;1.50;;;4.00;83.70;;;7.06;57.95;100357.69;5114038;28;20189;-56
2023/03/11 04:14:43;;;;;;;6.00;1.90;;;4.00;83.20;;;7.08;57.20;100366.19;5114063;28;20298;-52
2023/03/11 04:17:11;;;;;;;5.80;2.03;;;4.00;83.00;;;7.08;57.37;100363.56;5117341;28;20206;-56
2023/03/11 04:19:38;;;;;;;4.57;2.00;;;4.00;82.90;;;7.09;57.23;100370.44;5118358;28;20200;-55
2023/03/11 04:22:06;;;;;;;4.33;2.33;;;4.00;82.90;;;7.06;57.42;100374.19;5118122;28;20530;-53
2023/03/11 04:24:34;;;;;;;5.13;2.27;;;4.00;82.90;;;7.03;57.62;100385.00;5118199;27;20223;-53
2023/03/11 04:27:01;;;;;;;3.90;2.20;;;4.00;83.40;;;7.02;56.91;100383.34;5118868;28;20200;-53
2023/03/11 04:29:28;;;;;;;4.77;1.90;;;4.00;83.70;;;7.00;57.45;100380.06;5118650;28;20205;-54
2023/03/11 04:31:55;;;;;;;4.90;2.00;;;4.00;84.30;;;6.99;57.95;100388.09;5120391;28;20678;-55
2023/03/11 04:34:22;;;;;;;4.23;1.90;;;4.00;84.40;;;6.98;57.60;100391.66;5117743;28;20209;-53
2023/03/11 04:36:51;;;;;;;4.80;1.97;;;4.00;84.40;;;6.95;58.13;100390.19;5118384;27;20237;-57
2023/03/11 04:39:18;;;;;;;5.30;2.10;;;4.00;84.40;;;6.94;57.75;100398.22;5117884;28;20237;-54
2023/03/11 04:41:46;;;;;;;4.90;2.10;;;4.00;84.70;;;6.92;57.53;100398.34;5117763;28;20593;-55
2023/03/11 04:44:14;;;;;;;6.17;2.30;;;3.90;84.50;;;6.89;57.63;100387.41;5118023;28;20707;-55
2023/03/11 04:46:41;;;;;;;6.70;2.60;;;3.90;84.60;;;6.85;58.10;100392.13;5118754;28;20202;-54
2023/03/11 04:49:08;;;;;;;4.87;1.93;;;3.90;84.60;;;6.83;57.95;100394.91;5118468;28;20711;-53
2023/03/11 04:51:35;;;;;;;3.50;1.67;;;3.90;84.90;;;6.82;57.73;100403.72;5118605;27;20250;-53
2023/03/11 04:54:03;;;;;;;2.30;1.27;;;3.80;84.90;;;6.77;57.74;100405.97;5117418;28;20211;-54
2023/03/11 04:56:29;;;;;;;4.63;1.63;;;3.80;84.80;;;6.74;58.41;100401.09;5117302;27;20191;-53
2023/03/11 04:58:58;;;;;;;4.37;1.80;;;3.80;84.70;;;6.71;58.03;100416.25;5117403;28;20195;-54
2023/03/11 05:01:25;;;;;;;4.47;2.37;;;3.80;84.80;;;6.69;58.10;100419.06;5117810;28;20204;-57
2023/03/11 05:03:52;;;;;;;4.87;2.10;;;3.70;84.80;;;6.69;58.47;100421.66;5117045;28;20238;-56
2023/03/11 05:06:19;;;;;;;4.93;3.03;;;3.70;84.90;;;6.69;58.87;100424.28;5117571;28;20194;-55
2023/03/11 05:08:45;;;;;;;5.90;2.83;;;3.70;84.90;;;6.68;58.41;100424.44;5116473;28;20680;-56
2023/03/11 05:11:12;;;;;;;6.00;3.00;;;3.70;85.10;;;6.64;58.01;100421.31;5117917;28;20199;-53
2023/03/11 05:13:39;;;;;;;5.03;3.23;;;3.70;84.90;;;6.63;58.52;100435.34;5117431;28;20228;-55
2023/03/11 05:16:08;;;;;;;4.97;2.83;;;3.70;85.00;;;6.64;58.33;100431.78;5117189;28;20215;-55
2023/03/11 05:18:35;;;;;;;8.97;2.27;;;3.70;85.10;;;6.66;58.01;100439.44;5118050;28;20207;-53
2023/03/11 05:21:02;;;;;;;4.13;2.23;;;3.70;84.90;;;6.68;58.46;100440.94;5117683;28;20315;-54
2023/03/11 05:23:29;;;;;;;6.00;2.20;;;3.70;85.20;;;6.70;58.88;100444.19;5116759;28;20211;-54
2023/03/11 05:25:56;;;;;;;4.70;1.70;;;3.70;84.90;;;6.68;58.35;100456.63;5116928;28;20191;-56
2023/03/11 05:28:22;;;;;;;2.87;1.40;;;3.70;84.00;;;6.64;57.66;100447.47;5116833;28;20197;-56
2023/03/11 05:30:50;;;;;;;5.50;1.50;;;3.70;83.60;;;6.59;57.79;100454.94;5116714;28;20197;-53
2023/03/11 05:33:18;;;;;;;4.67;1.40;;;3.70;83.30;;;6.53;57.79;100455.59;5116682;28;20295;-52
2023/03/11 05:35:45;;;;;;;5.33;1.83;;;3.60;82.90;;;6.48;57.73;100464.84;5117824;28;20573;-54
2023/03/11 05:38:13;;;;;;;12.23;2.13;;;3.60;82.60;;;6.42;57.95;100468.91;5116846;28;20279;-56
2023/03/11 05:40:40;;;;;;;2.43;1.77;;;3.50;82.50;;;6.39;57.71;100468.41;5116723;28;20188;-54
2023/03/11 05:43:07;;;;;;;6.97;2.10;;;3.50;82.70;;;6.35;57.38;100475.72;5115588;28;20645;-52
2023/03/11 05:45:34;;;;;;;10.40;2.43;;;3.50;82.20;;;6.31;57.58;100487.47;5116531;28;20535;-55
2023/03/11 05:48:01;;;;;;;1.70;1.43;;;3.40;81.90;;;6.28;58.02;100484.31;5116919;28;20195;-52
2023/03/11 05:50:29;;;;;;;3.20;1.63;;;3.40;81.60;;;6.24;56.91;100491.66;5116360;28;20221;-55
2023/03/11 05:52:56;;;;;;;6.67;2.37;;;3.40;81.70;;;6.21;57.73;100491.94;5116169;28;20217;-55
2023/03/11 05:55:23;;;;;;;7.73;1.80;;;3.40;81.60;;;6.18;57.29;100494.06;5117945;28;20192;-55
2023/03/11 05:57:51;;;;;;;2.63;1.63;;;3.30;81.40;;;6.15;57.24;100503.03;5118502;28;20190;-54
2023/03/11 06:00:19;;;;;;;5.50;1.60;;;3.30;81.40;;;6.13;56.84;100507.59;5116484;28;20229;-53
2023/03/11 06:02:46;;;;;;;5.83;2.33;;;3.20;81.50;;;6.12;57.68;100504.16;5116423;28;20211;-55
2023/03/11 06:05:13;;;;;;;6.83;2.37;;;3.20;81.20;;;6.10;57.05;100513.09;5116858;27;20192;-53
2023/03/11 06:07:42;;;;;;;2.67;1.77;;;3.20;81.10;;;6.08;57.15;100512.44;5116514;28;20257;-55
2023/03/11 06:10:10;;;;;;;6.30;1.60;;;3.20;81.50;;;6.08;56.99;100515.88;5115533;28;20222;-56
2023/03/11 06:12:38;;;;;;;4.73;2.00;;;3.20;81.50;;;6.06;56.59;100519.63;5116332;28;20597;-55
2023/03/11 06:15:06;;;;;;;4.73;1.80;;;3.20;81.50;;;6.06;57.62;100524.84;5116356;28;20207;-55
2023/03/11 06:17:33;;;;;;;4.63;1.80;;;3.20;81.70;;;6.08;57.45;100530.72;5134629;27;20609;-56
2023/03/11 06:20:00;;;;;;;5.97;2.60;;;3.20;81.70;;;6.12;56.86;100532.06;5137689;27;20184;-55
2023/03/11 06:22:27;;;;;;;5.10;2.23;;;3.20;81.90;;;6.17;57.28;100531.59;5135952;27;20184;-55
2023/03/11 06:24:55;;;;;;;2.80;1.97;;;3.20;82.00;;;6.21;57.02;100544.22;5136322;27;20241;-56
2023/03/11 06:27:22;;;;;;;6.50;2.13;;;3.20;82.00;;;6.24;56.67;100543.09;5136433;27;20719;-53
2023/03/11 06:29:52;;;;;;;4.43;1.80;;;3.30;81.70;;;6.25;56.44;100553.41;5136491;27;20295;-53
2023/03/11 06:32:19;;;;;;;6.87;2.20;;;3.30;81.40;;;6.26;56.60;100557.66;5136378;27;20652;-54
2023/03/11 06:34:50;;;;;;;5.00;1.83;;;3.30;81.10;;;6.25;56.47;100566.47;5136267;27;20241;-53
2023/03/11 06:37:18;;;;;;;3.90;2.00;;;3.30;81.00;;;6.25;56.84;100569.09;5136072;27;20233;-54
2023/03/11 06:39:44;;;;;;;6.17;2.03;;;3.30;80.60;;;6.26;56.29;100573.31;5136027;27;20187;-54
2023/03/11 06:42:13;;;;;;;5.23;1.87;;;3.30;80.80;;;6.28;55.97;100574.00;5135604;27;20206;-56
2023/03/11 06:44:40;;;;;;;2.47;1.47;;;3.30;80.50;;;6.34;56.45;100576.00;5136232;27;20215;-54
2023/03/11 06:47:07;;;;;;;2.80;1.93;;;3.30;80.50;;;6.47;56.65;100583.44;5122490;27;20207;-54
2023/03/11 06:49:35;;;;;;;5.20;1.83;;;3.30;80.30;;;6.62;55.63;100590.59;5115124;28;20220;-54
2023/03/11 06:52:03;;;;;;;8.40;2.23;;;3.40;80.10;;;6.75;55.80;100593.63;5115037;28;20208;-56
2023/03/11 06:54:30;;;;;;;2.93;1.43;;;3.50;80.10;;;6.85;54.86;100606.59;5114853;28;20207;-53
2023/03/11 06:56:57;;;;;;;4.37;1.60;;;3.50;79.90;;;6.91;54.52;100605.16;5115130;28;20201;-54
2023/03/11 06:59:27;;;;;;;6.13;1.57;;;3.60;79.60;;;6.94;55.15;100610.09;5115066;28;20263;-55
2023/03/11 07:01:54;;;;;;;3.20;1.43;;;3.70;79.70;;;6.98;55.20;100607.00;5115464;28;20189;-54
2023/03/11 07:04:21;;;;;;;2.93;1.67;;;3.80;79.80;;;7.02;54.62;100617.97;5114549;28;20547;-55
2023/03/11 07:06:48;;;;;;;4.47;1.67;;;3.80;80.10;;;7.04;54.82;100622.09;5115189;28;20208;-56
2023/03/11 07:09:15;;;;;;;4.20;1.80;;;3.80;79.90;;;7.03;55.01;100614.41;5114762;28;20200;-52
2023/03/11 07:11:42;;;;;;;5.23;1.80;;;3.90;79.30;;;7.03;54.84;100628.31;5115182;28;20189;-55
2023/03/11 07:14:09;;;;;;;4.27;1.73;;;3.90;80.00;;;7.12;55.40;100635.22;5114504;28;20213;-56
2023/03/11 07:16:38;;;;;;;4.77;1.87;;;4.00;79.60;;;7.32;55.39;100638.44;5114409;28;20211;-55
2023/03/11 07:19:05;;;;;;;2.67;1.70;;;4.10;79.50;;;7.44;54.38;100645.06;5114976;28;20638;-56
2023/03/11 07:21:32;;;;;;;5.13;1.93;;;4.20;78.30;;;7.49;54.45;100648.81;5115124;28;20192;-53
2023/03/11 07:24:01;;;;;;;4.27;1.80;;;4.20;78.00;;;7.49;53.49;100658.47;5114716;28;20711;-55
2023/03/11 07:26:30;;;;;;;2.80;1.37;;;4.30;77.10;;;7.51;53.95;100656.53;5114745;28;20192;-52
2023/03/11 07:28:57;;;;;;;3.07;1.43;;;4.40;76.70;;;7.69;54.04;100659.88;5114951;28;20192;-53
2023/03/11 07:31:27;;;;;;;4.83;2.23;;;4.40;77.20;;;7.92;53.47;100660.94;5114653;28;20219;-53
2023/03/11 07:33:57;;;;;;;1.90;1.53;;;4.50;77.20;;;8.25;53.16;100672.31;5114452;27;20296;-55
2023/03/11 07:36:25;;;;;;;3.17;1.80;;;4.70;77.00;;;8.46;52.35;100674.53;5114372;28;20602;-54
2023/03/11 07:38:57;;;;;;;3.17;1.90;;;4.90;76.00;;;8.63;52.30;100676.16;5114818;28;20610;-55
2023/03/11 07:41:25;;;;;;;4.27;1.73;;;5.10;75.50;;;8.84;51.59;100682.56;5114710;28;20201;-54
2023/03/11 07:43:54;;;;;;;4.00;2.33;;;5.20;74.80;;;9.05;51.34;100681.25;5114317;28;20322;-54
2023/03/11 07:46:23;;;;;;;4.33;1.70;;;5.40;74.50;;;9.26;50.90;100684.97;5114704;28;20662;-53
2023/03/11 07:48:51;;;;;;;6.57;2.00;;;5.60;74.10;;;9.47;49.81;100681.81;5113022;28;20202;-53
2023/03/11 07:51:22;;;;;;;2.60;2.20;;;5.80;71.60;;;9.66;49.10;100691.09;5113749;28;20305;-55
2023/03/11 07:53:52;;;;;;;5.23;2.00;;;6.00;72.00;;;9.95;49.49;100692.16;5113939;28;20626;-54
2023/03/11 07:56:22;;;;;;;4.70;2.07;;;6.20;71.60;;;10.29;48.56;100699.72;5114035;28;20216;-56
2023/03/11 07:58:50;;;;;;;3.23;1.70;;;6.50;71.80;;;10.63;48.18;100697.50;5114921;28;20547;-53
2023/03/11 08:01:20;;;;;;;4.10;1.60;;;6.80;70.40;;;10.93;47.11;100708.97;5114245;28;20188;-52
2023/03/11 08:03:50;;;;;;;5.70;2.07;;;7.10;69.60;;;11.28;45.80;100710.13;5118145;28;20524;-57
2023/03/11 08:06:22;;;;;;;3.47;2.07;;;7.40;67.50;;;11.65;45.76;100717.16;5114575;28;20226;-56
2023/03/11 08:08:50;;;;;;;4.50;1.80;;;7.70;65.90;;;11.98;44.44;100721.88;5113490;28;20191;-54
2023/03/11 08:11:19;;;;;;;3.00;1.67;;;8.00;64.70;;;12.26;43.87;100724.66;5113959;28;20576;-56
2023/03/11 08:13:48;;;;;;;2.83;1.67;;;8.20;64.30;;;12.45;42.54;100728.53;5113795;28;20299;-54
2023/03/11 08:16:18;;;;;;;3.00;1.70;;;8.50;62.40;;;12.56;42.79;100733.31;5114123;28;20206;-56
2023/03/11 08:18:46;;;;;;;2.77;1.50;;;8.60;60.90;;;12.61;41.90;100738.84;5114024;28;20176;-57
2023/03/11 08:21:17;;;;;;;3.23;1.50;;;8.70;60.00;;;12.76;41.88;100737.78;5113732;28;20191;-54
2023/03/11 08:23:45;;;;;;;5.60;1.80;;;8.90;60.90;;;13.01;41.03;100743.50;5114151;28;20286;-55
2023/03/11 08:26:16;;;;;;;4.43;1.50;;;9.00;60.50;;;13.27;40.35;100751.66;5114411;28;20194;-56
2023/03/11 08:28:44;;;;;;;3.83;1.43;;;9.20;58.90;;;13.57;40.14;100753.09;5114347;28;20196;-56
2023/03/11 08:31:13;;;;;;;4.47;1.70;;;9.30;58.80;;;13.74;39.37;100753.63;5113800;28;20220;-54
2023/03/11 08:33:41;;;;;;;8.03;2.00;;;9.50;58.00;;;13.82;39.34;100750.00;5113728;28;20207;-54
2023/03/11 08:36:08;;;;;;;3.23;1.73;;;9.70;57.50;;;14.01;38.93;100750.13;5114371;28;20291;-54
2023/03/11 08:38:36;;;;;;;4.60;2.00;;;9.90;57.80;;;14.36;38.54;100756.19;5108624;28;20211;-54
2023/03/11 08:41:04;;;;;;;3.40;1.70;;;10.00;56.10;;;14.97;37.58;100756.94;5093404;28;20184;-54
2023/03/11 08:43:31;;;;;;;4.47;2.27;;;10.30;55.70;;;15.77;36.38;100758.53;5093344;28;20640;-57
2023/03/11 08:46:00;;;;;;;2.17;1.60;;;10.60;55.00;;;16.57;36.09;100761.53;5094036;28;20284;-55
2023/03/11 08:48:27;;;;;;;2.10;1.87;;;11.20;55.90;;;17.34;34.84;100763.88;5092306;28;20189;-56
2023/03/11 08:50:55;;;;;;;3.77;1.83;;;11.70;54.40;;;18.00;33.64;100763.22;5093975;28;20212;-54
2023/03/11 08:53:22;;;;;;;3.43;1.97;;;12.20;52.80;;;18.64;32.21;100765.31;5093246;28;20220;-56
2023/03/11 08:55:51;;;;;;;2.57;2.03;;;12.80;50.10;;;19.23;30.96;100767.09;5093600;28;20274;-53
2023/03/11 08:58:20;;;;;;;3.13;1.73;;;13.20;49.10;;;19.87;30.72;100767.00;5093200;28;20276;-54
2023/03/11 09:00:47;;;;;;;3.33;1.80;;;13.70;48.00;;;20.40;29.68;100776.66;5094119;28;20185;-54
2023/03/11 09:03:14;;;;;;;3.20;1.70;;;14.20;46.60;;;20.92;28.52;100775.50;5097084;28;20214;-54
2023/03/11 09:05:41;;;;;;;5.80;2.10;;;14.70;45.10;;;21.51;27.99;100780.25;5098564;28;20246;-55
2023/03/11 09:08:08;;;;;;;3.03;1.43;;;15.20;44.20;;;22.00;27.15;100777.75;5096283;28;20242;-55
2023/03/11 09:10:38;;;;;;;5.70;1.63;;;15.60;42.20;;;22.26;27.12;100793.09;5097112;28;20322;-57
2023/03/11 09:13:05;;;;;;;5.27;1.90;;;16.00;41.30;;;22.19;26.81;100792.47;5095996;28;20308;-57
2023/03/11 09:15:35;;;;;;;3.33;2.20;;;16.40;39.90;;;22.23;26.58;100782.88;5096867;28;20294;-55
2023/03/11 09:18:02;;;;;;;3.30;2.00;;;16.70;39.00;;;22.39;26.48;100787.38;5116409;28;20206;-56
2023/03/11 09:20:29;;;;;;;2.97;1.70;;;16.90;38.30;;;22.65;25.01;100786.63;5116709;28;20278;-53
2023/03/11 09:22:56;;;;;;;3.73;1.70;;;17.10;35.90;;;22.88;24.77;100785.50;5115874;28;20219;-57
2023/03/11 09:25:23;;;;;;;3.30;2.37;;;17.20;36.50;;;23.23;24.31;100793.03;5116260;28;20203;-57
2023/03/11 09:27:50;;;;;;;6.10;1.83;;;17.50;36.10;;;23.58;23.96;100798.75;5116853;28;20195;-55
2023/03/11 09:30:17;;;;;;;4.47;2.20;;;17.70;35.70;;;23.94;23.51;100797.88;5116595;28;20269;-55
2023/03/11 09:32:46;;;;;;;3.13;1.60;;;17.90;35.50;;;24.36;23.69;100799.72;5115467;27;20210;-56
2023/03/11 09:35:13;;;;;;;3.93;1.70;;;18.20;35.00;;;24.85;23.35;100790.16;5110280;28;20286;-55
2023/03/11 09:37:40;;;;;;;4.53;1.90;;;18.50;35.00;;;25.27;22.94;100796.13;5116115;28;20192;-57
2023/03/11 09:40:14;;;;;;;3.00;1.90;;;18.70;34.20;;;25.73;22.21;100796.09;5116100;28;20192;-54
2023/03/11 09:42:54;;;;;;;2.67;2.17;;;19.00;34.20;;;26.10;21.92;100796.56;5115938;28;20245;-57
2023/03/11 09:45:27;;;;;;;7.07;3.10;;;19.40;32.60;;;26.39;21.45;100797.53;5115979;28;20187;-54
2023/03/11 09:48:15;;;;;;;5.47;1.67;;;19.60;32.20;;;26.71;20.88;100803.31;5116614;28;20188;-57
2023/03/11 09:50:52;;;;;;;3.70;1.30;;;19.80;31.20;;;26.89;20.46;100798.38;5116487;28;20226;-56
2023/03/11 09:53:34;;;;;;;3.60;2.30;;;20.10;30.70;;;27.03;20.64;100796.63;5115282;27;20230;-57
2023/03/11 09:56:06;;;;;;;4.37;2.27;;;20.30;30.70;;;27.35;20.00;100796.91;5116148;28;20628;-57
2023/03/11 09:58:39;;;;;;;4.63;2.10;;;20.50;30.30;;;27.61;19.77;100790.19;5115454;28;20191;-55
2023/03/11 10:01:17;;;;;;;7.40;2.00;;;20.70;30.00;;;27.70;19.36;100796.59;5115666;28;20216;-57
2023/03/11 10:03:47;;;;;;;3.97;2.40;;;20.80;29.70;;;27.76;19.43;100802.75;5115254;28;20207;-56
2023/03/11 10:06:18;;;;;;;4.20;1.80;;;21.00;29.60;;;27.72;19.41;100797.09;5115909;28;20199;-56
2023/03/11 10:08:55;;;;;;;3.73;2.23;;;21.10;29.40;;;27.65;19.49;100807.44;5114503;28;20183;-55
2023/03/11 10:11:44;;;;;;;2.63;1.70;;;21.20;29.30;;;27.98;19.12;100811.97;5114898;28;20643;-57
2023/03/11 10:14:29;;;;;;;3.33;2.00;;;21.30;29.00;;;28.40;18.34;100807.72;5114217;28;20310;-58
2023/03/11 10:17:06;;;;;;;4.13;2.13;;;21.40;28.50;;;28.31;18.54;100809.47;5113955;28;20436;-57
2023/03/11 10:19:45;;;;;;;6.17;2.37;;;21.50;28.90;;;27.95;18.93;100819.88;5115702;28;20167;-54
2023/03/11 10:22:22;;;;;;;3.80;2.03;;;21.50;28.40;;;27.72;19.30;100818.75;5115541;28;20219;-55
2023/03/11 10:25:04;;;;;;;2.73;1.70;;;21.50;28.60;;;27.51;19.42;100817.31;5115415;28;20211;-56
2023/03/11 10:27:39;;;;;;;4.83;2.97;;;21.50;28.40;;;27.43;19.37;100817.97;5115991;28;20198;-57
2023/03/11 10:30:22;;;;;;;5.20;1.87;;;21.50;28.50;;;27.20;19.30;100824.88;5115427;28;20678;-57